sensor_id;sensor_type;location;lat;lon;timestamp;temperature;humidity
45008;DHT22;30743;52.008;5.644;2023-05-10T00:01:11;19.70;99.90
45008;DHT22;30743;52.008;5.644;2023-05-10T00:03:36;19.60;99.90
45008;DHT22;30743;52.008;5.644;2023-05-10T00:06:02;19.60;99.90
45008;DHT22;30743;52.008;5.644;2023-05-10T00:08:27;19.50;99.90
45008;DHT22;30743;52.008;5.644;2023-05-10T00:10:53;19.50;99.90
45008;DHT22;30743;52.008;5.644;2023-05-10T00:13:18;19.50;99.90
45008;DHT22;30743;52.008;5.644;2023-05-10T00:15:44;19.40;99.90
45008;DHT22;30743;52.008;5.644;2023-05-10T00:18:10;19.50;99.90
45008;DHT22;30743;52.008;5.644;2023-05-10T00:20:35;19.50;99.90
45008;DHT22;30743;52.008;5.644;2023-05-10T00:23:01;19.50;99.90
45008;DHT22;30743;52.008;5.644;2023-05-10T00:25:26;19.50;99.90
45008;DHT22;30743;52.008;5.644;2023-05-10T00:27:52;19.50;99.90
45008;DHT22;30743;52.008;5.644;2023-05-10T00:30:17;19.30;99.90
45008;DHT22;30743;52.008;5.644;2023-05-10T00:32:44;19.40;99.90
45008;DHT22;30743;52.008;5.644;2023-05-10T00:35:09;19.40;99.90
45008;DHT22;30743;52.008;5.644;2023-05-10T00:37:35;19.40;99.90
45008;DHT22;30743;52.008;5.644;2023-05-10T00:40:00;19.30;99.90
45008;DHT22;30743;52.008;5.644;2023-05-10T00:42:26;19.40;99.90
45008;DHT22;30743;52.008;5.644;2023-05-10T00:44:51;19.40;99.90
45008;DHT22;30743;52.008;5.644;2023-05-10T00:47:17;19.50;99.90
45008;DHT22;30743;52.008;5.644;2023-05-10T00:49:43;19.50;99.90
45008;DHT22;30743;52.008;5.644;2023-05-10T00:52:09;19.50;99.90
45008;DHT22;30743;52.008;5.644;2023-05-10T00:54:35;19.50;99.90
45008;DHT22;30743;52.008;5.644;2023-05-10T00:57:01;19.50;99.90
45008;DHT22;30743;52.008;5.644;2023-05-10T00:59:27;19.50;99.90
45008;DHT22;30743;52.008;5.644;2023-05-10T01:01:53;19.60;99.90
45008;DHT22;30743;52.008;5.644;2023-05-10T01:04:19;19.60;99.90
45008;DHT22;30743;52.008;5.644;2023-05-10T01:06:51;19.50;99.90
45008;DHT22;30743;52.008;5.644;2023-05-10T01:09:17;19.30;99.90
45008;DHT22;30743;52.008;5.644;2023-05-10T01:11:43;19.40;99.90
45008;DHT22;30743;52.008;5.644;2023-05-10T01:14:09;19.30;99.90
45008;DHT22;30743;52.008;5.644;2023-05-10T01:16:37;19.40;99.90
45008;DHT22;30743;52.008;5.644;2023-05-10T01:19:05;19.40;99.90
45008;DHT22;30743;52.008;5.644;2023-05-10T01:24:28;19.20;99.90
45008;DHT22;30743;52.008;5.644;2023-05-10T01:32:55;19.20;99.90
45008;DHT22;30743;52.008;5.644;2023-05-10T01:35:43;19.10;99.90
45008;DHT22;30743;52.008;5.644;2023-05-10T01:38:22;19.00;99.90
45008;DHT22;30743;52.008;5.644;2023-05-10T01:41:18;18.90;99.90
45008;DHT22;30743;52.008;5.644;2023-05-10T01:44:17;19.00;99.90
45008;DHT22;30743;52.008;5.644;2023-05-10T01:46:49;18.70;99.90
45008;DHT22;30743;52.008;5.644;2023-05-10T01:49:30;18.60;99.90
45008;DHT22;30743;52.008;5.644;2023-05-10T01:52:03;18.60;99.90
45008;DHT22;30743;52.008;5.644;2023-05-10T01:54:32;18.70;99.90
45008;DHT22;30743;52.008;5.644;2023-05-10T01:57:05;18.70;99.90
45008;DHT22;30743;52.008;5.644;2023-05-10T01:59:34;18.80;99.90
45008;DHT22;30743;52.008;5.644;2023-05-10T02:02:06;18.80;99.90
45008;DHT22;30743;52.008;5.644;2023-05-10T02:04:34;18.60;99.90
45008;DHT22;30743;52.008;5.644;2023-05-10T02:07:00;18.60;99.90
45008;DHT22;30743;52.008;5.644;2023-05-10T02:09:27;18.50;99.90
45008;DHT22;30743;52.008;5.644;2023-05-10T02:11:53;18.30;99.90
45008;DHT22;30743;52.008;5.644;2023-05-10T02:14:20;18.30;99.90
45008;DHT22;30743;52.008;5.644;2023-05-10T02:16:48;18.30;99.90
45008;DHT22;30743;52.008;5.644;2023-05-10T02:19:15;18.40;99.90
45008;DHT22;30743;52.008;5.644;2023-05-10T02:21:43;18.50;99.90
45008;DHT22;30743;52.008;5.644;2023-05-10T02:24:11;18.60;99.90
45008;DHT22;30743;52.008;5.644;2023-05-10T02:26:38;18.60;99.90
45008;DHT22;30743;52.008;5.644;2023-05-10T02:29:05;18.40;99.90
45008;DHT22;30743;52.008;5.644;2023-05-10T02:31:33;18.30;99.90
45008;DHT22;30743;52.008;5.644;2023-05-10T02:33:59;18.40;99.90
45008;DHT22;30743;52.008;5.644;2023-05-10T02:36:26;18.30;99.90
45008;DHT22;30743;52.008;5.644;2023-05-10T02:38:53;18.30;99.90
45008;DHT22;30743;52.008;5.644;2023-05-10T02:41:20;18.40;99.90
45008;DHT22;30743;52.008;5.644;2023-05-10T02:43:47;18.40;99.90
45008;DHT22;30743;52.008;5.644;2023-05-10T02:46:15;18.40;99.90
45008;DHT22;30743;52.008;5.644;2023-05-10T02:48:40;18.30;99.90
45008;DHT22;30743;52.008;5.644;2023-05-10T02:51:08;18.30;99.90
45008;DHT22;30743;52.008;5.644;2023-05-10T02:53:36;18.40;99.90
45008;DHT22;30743;52.008;5.644;2023-05-10T02:56:17;18.40;99.90
45008;DHT22;30743;52.008;5.644;2023-05-10T02:58:45;19.60;99.90
45008;DHT22;30743;52.008;5.644;2023-05-10T03:01:11;18.30;99.90
45008;DHT22;30743;52.008;5.644;2023-05-10T03:03:37;18.30;99.90
45008;DHT22;30743;52.008;5.644;2023-05-10T03:06:02;18.30;99.90
45008;DHT22;30743;52.008;5.644;2023-05-10T03:08:29;18.30;99.90
45008;DHT22;30743;52.008;5.644;2023-05-10T03:16:27;17.90;99.90
45008;DHT22;30743;52.008;5.644;2023-05-10T03:18:54;17.80;99.90
45008;DHT22;30743;52.008;5.644;2023-05-10T03:21:22;17.60;99.90
45008;DHT22;30743;52.008;5.644;2023-05-10T03:23:51;17.60;99.90
45008;DHT22;30743;52.008;5.644;2023-05-10T03:26:24;17.60;99.90
45008;DHT22;30743;52.008;5.644;2023-05-10T03:28:51;17.50;99.90
45008;DHT22;30743;52.008;5.644;2023-05-10T03:31:17;17.50;99.90
45008;DHT22;30743;52.008;5.644;2023-05-10T03:33:47;17.60;99.90
45008;DHT22;30743;52.008;5.644;2023-05-10T03:36:13;17.60;99.90
45008;DHT22;30743;52.008;5.644;2023-05-10T03:38:39;17.70;99.90
45008;DHT22;30743;52.008;5.644;2023-05-10T03:41:04;17.90;99.90
45008;DHT22;30743;52.008;5.644;2023-05-10T03:43:30;18.00;99.90
45008;DHT22;30743;52.008;5.644;2023-05-10T03:45:55;18.00;99.90
45008;DHT22;30743;52.008;5.644;2023-05-10T03:48:21;18.10;99.90
45008;DHT22;30743;52.008;5.644;2023-05-10T03:50:46;18.10;99.90
45008;DHT22;30743;52.008;5.644;2023-05-10T03:53:12;18.10;99.90
45008;DHT22;30743;52.008;5.644;2023-05-10T03:55:37;18.30;99.90
45008;DHT22;30743;52.008;5.644;2023-05-10T03:58:03;18.30;99.90
45008;DHT22;30743;52.008;5.644;2023-05-10T04:00:28;18.40;99.90
45008;DHT22;30743;52.008;5.644;2023-05-10T04:02:54;18.40;99.90
45008;DHT22;30743;52.008;5.644;2023-05-10T04:05:19;18.50;99.90
45008;DHT22;30743;52.008;5.644;2023-05-10T04:07:45;18.50;99.90
45008;DHT22;30743;52.008;5.644;2023-05-10T04:10:12;18.30;99.90
45008;DHT22;30743;52.008;5.644;2023-05-10T04:12:37;18.40;99.90
45008;DHT22;30743;52.008;5.644;2023-05-10T04:15:03;18.40;99.90
45008;DHT22;30743;52.008;5.644;2023-05-10T04:17:29;18.60;99.90
45008;DHT22;30743;52.008;5.644;2023-05-10T04:19:55;18.70;99.90
45008;DHT22;30743;52.008;5.644;2023-05-10T04:22:21;18.60;99.90
45008;DHT22;30743;52.008;5.644;2023-05-10T04:24:46;18.50;99.90
45008;DHT22;30743;52.008;5.644;2023-05-10T04:27:12;18.50;99.90
45008;DHT22;30743;52.008;5.644;2023-05-10T04:29:37;18.50;99.90
45008;DHT22;30743;52.008;5.644;2023-05-10T04:32:03;18.50;99.90
45008;DHT22;30743;52.008;5.644;2023-05-10T04:34:29;18.40;99.90
45008;DHT22;30743;52.008;5.644;2023-05-10T04:36:54;18.40;99.90
45008;DHT22;30743;52.008;5.644;2023-05-10T04:39:20;18.10;99.90
45008;DHT22;30743;52.008;5.644;2023-05-10T04:41:46;18.10;99.90
45008;DHT22;30743;52.008;5.644;2023-05-10T04:44:11;18.10;99.90
45008;DHT22;30743;52.008;5.644;2023-05-10T04:46:37;18.00;99.90
45008;DHT22;30743;52.008;5.644;2023-05-10T04:49:02;17.90;99.90
45008;DHT22;30743;52.008;5.644;2023-05-10T04:51:28;18.00;99.90
45008;DHT22;30743;52.008;5.644;2023-05-10T04:53:53;18.00;99.90
45008;DHT22;30743;52.008;5.644;2023-05-10T04:56:19;18.10;99.90
45008;DHT22;30743;52.008;5.644;2023-05-10T04:58:44;17.90;99.90
45008;DHT22;30743;52.008;5.644;2023-05-10T05:01:10;18.00;99.90
45008;DHT22;30743;52.008;5.644;2023-05-10T05:03:36;18.00;99.90
45008;DHT22;30743;52.008;5.644;2023-05-10T05:06:02;18.00;99.90
45008;DHT22;30743;52.008;5.644;2023-05-10T05:08:27;18.00;99.90
45008;DHT22;30743;52.008;5.644;2023-05-10T05:10:53;18.10;99.90
45008;DHT22;30743;52.008;5.644;2023-05-10T05:13:19;18.10;99.90
45008;DHT22;30743;52.008;5.644;2023-05-10T05:15:45;18.20;99.90
45008;DHT22;30743;52.008;5.644;2023-05-10T05:18:10;18.30;99.90
45008;DHT22;30743;52.008;5.644;2023-05-10T05:20:36;18.40;99.90
45008;DHT22;30743;52.008;5.644;2023-05-10T05:23:01;18.40;99.90
45008;DHT22;30743;52.008;5.644;2023-05-10T05:25:27;18.30;99.90
45008;DHT22;30743;52.008;5.644;2023-05-10T05:27:53;18.40;99.90
45008;DHT22;30743;52.008;5.644;2023-05-10T05:30:18;18.70;99.90
45008;DHT22;30743;52.008;5.644;2023-05-10T05:32:44;18.70;99.90
45008;DHT22;30743;52.008;5.644;2023-05-10T05:35:09;18.80;99.90
45008;DHT22;30743;52.008;5.644;2023-05-10T05:37:36;18.80;99.90
45008;DHT22;30743;52.008;5.644;2023-05-10T05:40:02;18.90;99.90
45008;DHT22;30743;52.008;5.644;2023-05-10T05:42:28;19.00;99.90
45008;DHT22;30743;52.008;5.644;2023-05-10T05:44:54;18.90;99.90
45008;DHT22;30743;52.008;5.644;2023-05-10T05:47:19;18.80;99.90
45008;DHT22;30743;52.008;5.644;2023-05-10T05:49:45;18.80;99.90
45008;DHT22;30743;52.008;5.644;2023-05-10T05:52:13;18.90;99.90
45008;DHT22;30743;52.008;5.644;2023-05-10T05:54:39;18.90;99.90
45008;DHT22;30743;52.008;5.644;2023-05-10T05:57:04;18.90;99.90
45008;DHT22;30743;52.008;5.644;2023-05-10T05:59:30;19.00;99.90
45008;DHT22;30743;52.008;5.644;2023-05-10T06:01:55;18.90;99.90
45008;DHT22;30743;52.008;5.644;2023-05-10T06:04:21;18.80;99.90
45008;DHT22;30743;52.008;5.644;2023-05-10T06:06:46;18.90;99.90
45008;DHT22;30743;52.008;5.644;2023-05-10T06:09:12;18.80;99.90
45008;DHT22;30743;52.008;5.644;2023-05-10T06:11:38;18.70;99.90
45008;DHT22;30743;52.008;5.644;2023-05-10T06:14:04;18.70;99.90
45008;DHT22;30743;52.008;5.644;2023-05-10T06:16:32;18.70;99.90
45008;DHT22;30743;52.008;5.644;2023-05-10T06:18:58;18.90;99.90
45008;DHT22;30743;52.008;5.644;2023-05-10T06:21:23;18.80;99.90
45008;DHT22;30743;52.008;5.644;2023-05-10T06:23:49;18.50;99.90
45008;DHT22;30743;52.008;5.644;2023-05-10T06:26:14;18.50;99.90
45008;DHT22;30743;52.008;5.644;2023-05-10T06:28:40;18.30;99.90
45008;DHT22;30743;52.008;5.644;2023-05-10T06:31:06;18.40;99.90
45008;DHT22;30743;52.008;5.644;2023-05-10T06:33:33;18.30;99.90
45008;DHT22;30743;52.008;5.644;2023-05-10T06:35:58;18.10;99.90
45008;DHT22;30743;52.008;5.644;2023-05-10T06:38:24;17.90;99.90
45008;DHT22;30743;52.008;5.644;2023-05-10T06:40:49;17.90;99.90
45008;DHT22;30743;52.008;5.644;2023-05-10T06:43:15;18.20;99.90
45008;DHT22;30743;52.008;5.644;2023-05-10T06:45:41;18.10;99.90
45008;DHT22;30743;52.008;5.644;2023-05-10T06:48:06;17.70;99.90
45008;DHT22;30743;52.008;5.644;2023-05-10T06:50:32;17.80;99.90
45008;DHT22;30743;52.008;5.644;2023-05-10T06:52:59;18.00;99.90
45008;DHT22;30743;52.008;5.644;2023-05-10T06:55:24;18.30;99.90
45008;DHT22;30743;52.008;5.644;2023-05-10T06:57:50;18.40;99.90
45008;DHT22;30743;52.008;5.644;2023-05-10T07:00:17;19.10;99.90
45008;DHT22;30743;52.008;5.644;2023-05-10T07:02:42;18.30;99.90
45008;DHT22;30743;52.008;5.644;2023-05-10T07:05:09;18.50;99.90
45008;DHT22;30743;52.008;5.644;2023-05-10T07:07:34;18.70;99.90
45008;DHT22;30743;52.008;5.644;2023-05-10T07:10:00;18.50;99.90
45008;DHT22;30743;52.008;5.644;2023-05-10T07:12:26;18.40;99.90
45008;DHT22;30743;52.008;5.644;2023-05-10T07:14:52;18.50;99.90
45008;DHT22;30743;52.008;5.644;2023-05-10T07:17:17;18.50;99.90
45008;DHT22;30743;52.008;5.644;2023-05-10T07:19:43;18.60;99.90
45008;DHT22;30743;52.008;5.644;2023-05-10T07:22:09;18.50;99.90
45008;DHT22;30743;52.008;5.644;2023-05-10T07:24:35;18.60;99.90
45008;DHT22;30743;52.008;5.644;2023-05-10T07:27:01;18.60;99.90
45008;DHT22;30743;52.008;5.644;2023-05-10T07:29:27;18.70;99.90
45008;DHT22;30743;52.008;5.644;2023-05-10T07:31:53;18.90;99.90
45008;DHT22;30743;52.008;5.644;2023-05-10T07:34:19;19.20;99.90
45008;DHT22;30743;52.008;5.644;2023-05-10T07:36:45;19.40;99.90
45008;DHT22;30743;52.008;5.644;2023-05-10T07:39:10;19.60;99.90
45008;DHT22;30743;52.008;5.644;2023-05-10T07:41:36;19.70;99.90
45008;DHT22;30743;52.008;5.644;2023-05-10T07:44:03;19.80;99.90
45008;DHT22;30743;52.008;5.644;2023-05-10T07:46:29;19.90;99.90
45008;DHT22;30743;52.008;5.644;2023-05-10T07:48:54;19.90;99.90
45008;DHT22;30743;52.008;5.644;2023-05-10T07:51:20;19.80;99.90
45008;DHT22;30743;52.008;5.644;2023-05-10T07:53:46;19.90;99.90
45008;DHT22;30743;52.008;5.644;2023-05-10T07:56:26;20.00;99.90
45008;DHT22;30743;52.008;5.644;2023-05-10T07:58:55;19.90;99.90
45008;DHT22;30743;52.008;5.644;2023-05-10T08:01:21;20.00;99.90
45008;DHT22;30743;52.008;5.644;2023-05-10T08:03:47;20.10;99.90
45008;DHT22;30743;52.008;5.644;2023-05-10T08:06:14;20.00;99.90
45008;DHT22;30743;52.008;5.644;2023-05-10T08:08:40;19.80;99.90
45008;DHT22;30743;52.008;5.644;2023-05-10T08:11:06;19.80;99.90
45008;DHT22;30743;52.008;5.644;2023-05-10T08:13:31;19.70;99.90
45008;DHT22;30743;52.008;5.644;2023-05-10T08:15:57;19.70;99.90
45008;DHT22;30743;52.008;5.644;2023-05-10T08:18:22;19.70;99.90
45008;DHT22;30743;52.008;5.644;2023-05-10T08:20:48;19.60;99.90
45008;DHT22;30743;52.008;5.644;2023-05-10T08:23:13;19.70;99.90
45008;DHT22;30743;52.008;5.644;2023-05-10T08:25:39;19.70;99.90
45008;DHT22;30743;52.008;5.644;2023-05-10T08:28:05;19.90;99.90
45008;DHT22;30743;52.008;5.644;2023-05-10T08:30:30;19.70;99.90
45008;DHT22;30743;52.008;5.644;2023-05-10T08:32:56;19.50;99.90
45008;DHT22;30743;52.008;5.644;2023-05-10T08:35:22;19.30;99.90
45008;DHT22;30743;52.008;5.644;2023-05-10T08:37:47;19.20;99.90
45008;DHT22;30743;52.008;5.644;2023-05-10T08:40:14;19.00;99.90
45008;DHT22;30743;52.008;5.644;2023-05-10T08:42:42;19.30;99.90
45008;DHT22;30743;52.008;5.644;2023-05-10T08:45:10;19.70;99.90
45008;DHT22;30743;52.008;5.644;2023-05-10T08:47:37;20.00;99.90
45008;DHT22;30743;52.008;5.644;2023-05-10T08:50:04;20.30;99.90
45008;DHT22;30743;52.008;5.644;2023-05-10T08:52:33;20.50;99.90
45008;DHT22;30743;52.008;5.644;2023-05-10T08:55:02;20.80;99.90
45008;DHT22;30743;52.008;5.644;2023-05-10T08:57:28;21.10;99.90
45008;DHT22;30743;52.008;5.644;2023-05-10T08:59:54;21.40;99.90
45008;DHT22;30743;52.008;5.644;2023-05-10T09:02:20;21.50;99.90
45008;DHT22;30743;52.008;5.644;2023-05-10T09:04:46;21.50;99.90
45008;DHT22;30743;52.008;5.644;2023-05-10T09:07:12;21.70;99.90
45008;DHT22;30743;52.008;5.644;2023-05-10T09:09:37;21.80;99.90
45008;DHT22;30743;52.008;5.644;2023-05-10T09:12:03;21.90;99.90
45008;DHT22;30743;52.008;5.644;2023-05-10T09:14:30;22.10;99.90
45008;DHT22;30743;52.008;5.644;2023-05-10T09:16:56;22.00;99.90
45008;DHT22;30743;52.008;5.644;2023-05-10T09:19:21;22.10;99.90
45008;DHT22;30743;52.008;5.644;2023-05-10T09:21:47;22.00;99.90
45008;DHT22;30743;52.008;5.644;2023-05-10T09:24:14;22.10;99.90
45008;DHT22;30743;52.008;5.644;2023-05-10T09:26:46;22.10;99.90
45008;DHT22;30743;52.008;5.644;2023-05-10T09:29:15;21.80;99.90
45008;DHT22;30743;52.008;5.644;2023-05-10T09:31:53;21.90;99.90
45008;DHT22;30743;52.008;5.644;2023-05-10T09:34:29;22.00;99.90
45008;DHT22;30743;52.008;5.644;2023-05-10T09:36:57;22.10;99.90
45008;DHT22;30743;52.008;5.644;2023-05-10T09:39:35;22.00;99.90
45008;DHT22;30743;52.008;5.644;2023-05-10T09:42:08;21.90;99.90
45008;DHT22;30743;52.008;5.644;2023-05-10T09:44:34;22.10;99.90
45008;DHT22;30743;52.008;5.644;2023-05-10T09:47:01;22.10;99.90
45008;DHT22;30743;52.008;5.644;2023-05-10T09:49:27;23.70;99.90
45008;DHT22;30743;52.008;5.644;2023-05-10T09:52:19;21.80;99.90
45008;DHT22;30743;52.008;5.644;2023-05-10T09:54:53;21.80;99.90
45008;DHT22;30743;52.008;5.644;2023-05-10T09:57:20;21.80;99.90
45008;DHT22;30743;52.008;5.644;2023-05-10T09:59:47;21.80;99.90
45008;DHT22;30743;52.008;5.644;2023-05-10T10:02:13;21.80;99.90
45008;DHT22;30743;52.008;5.644;2023-05-10T10:04:40;22.00;99.90
45008;DHT22;30743;52.008;5.644;2023-05-10T10:07:06;22.10;99.90
45008;DHT22;30743;52.008;5.644;2023-05-10T10:09:32;22.20;99.90
45008;DHT22;30743;52.008;5.644;2023-05-10T10:12:02;22.10;99.90
45008;DHT22;30743;52.008;5.644;2023-05-10T10:14:29;22.10;99.90
45008;DHT22;30743;52.008;5.644;2023-05-10T10:16:55;22.20;99.90
45008;DHT22;30743;52.008;5.644;2023-05-10T10:19:21;22.30;99.90
45008;DHT22;30743;52.008;5.644;2023-05-10T10:21:49;22.40;99.90
45008;DHT22;30743;52.008;5.644;2023-05-10T10:24:14;22.40;99.90
45008;DHT22;30743;52.008;5.644;2023-05-10T10:26:41;22.30;99.90
45008;DHT22;30743;52.008;5.644;2023-05-10T10:29:47;22.30;99.90
45008;DHT22;30743;52.008;5.644;2023-05-10T10:32:35;22.40;99.90
45008;DHT22;30743;52.008;5.644;2023-05-10T10:35:03;22.20;99.90
45008;DHT22;30743;52.008;5.644;2023-05-10T10:37:46;22.00;99.90
45008;DHT22;30743;52.008;5.644;2023-05-10T10:40:32;21.90;99.90
45008;DHT22;30743;52.008;5.644;2023-05-10T10:42:58;21.90;99.90
45008;DHT22;30743;52.008;5.644;2023-05-10T10:45:43;22.00;99.90
45008;DHT22;30743;52.008;5.644;2023-05-10T10:48:22;21.80;99.90
45008;DHT22;30743;52.008;5.644;2023-05-10T10:50:56;21.90;99.90
45008;DHT22;30743;52.008;5.644;2023-05-10T10:53:21;21.90;99.90
45008;DHT22;30743;52.008;5.644;2023-05-10T10:55:48;22.00;99.90
45008;DHT22;30743;52.008;5.644;2023-05-10T10:58:30;22.30;99.90
45008;DHT22;30743;52.008;5.644;2023-05-10T11:01:17;22.30;99.90
45008;DHT22;30743;52.008;5.644;2023-05-10T11:06:40;22.30;99.90
45008;DHT22;30743;52.008;5.644;2023-05-10T11:09:08;22.40;99.90
45008;DHT22;30743;52.008;5.644;2023-05-10T11:11:35;22.40;99.90
45008;DHT22;30743;52.008;5.644;2023-05-10T11:14:05;22.30;99.90
45008;DHT22;30743;52.008;5.644;2023-05-10T11:16:41;22.40;99.90
45008;DHT22;30743;52.008;5.644;2023-05-10T11:19:12;22.40;99.90
45008;DHT22;30743;52.008;5.644;2023-05-10T11:22:11;22.20;99.90
45008;DHT22;30743;52.008;5.644;2023-05-10T11:24:38;21.90;99.90
45008;DHT22;30743;52.008;5.644;2023-05-10T11:27:03;21.80;99.90
45008;DHT22;30743;52.008;5.644;2023-05-10T11:29:29;22.10;99.90
45008;DHT22;30743;52.008;5.644;2023-05-10T11:31:58;22.40;99.90
45008;DHT22;30743;52.008;5.644;2023-05-10T11:34:25;22.50;99.90
45008;DHT22;30743;52.008;5.644;2023-05-10T11:36:52;22.70;99.90
45008;DHT22;30743;52.008;5.644;2023-05-10T11:39:19;22.90;99.90
45008;DHT22;30743;52.008;5.644;2023-05-10T11:41:48;23.10;99.90
45008;DHT22;30743;52.008;5.644;2023-05-10T11:44:14;23.30;99.90
45008;DHT22;30743;52.008;5.644;2023-05-10T11:46:39;23.30;99.90
45008;DHT22;30743;52.008;5.644;2023-05-10T11:49:07;23.40;99.90
45008;DHT22;30743;52.008;5.644;2023-05-10T11:51:36;23.70;99.90
45008;DHT22;30743;52.008;5.644;2023-05-10T11:54:10;23.20;99.90
45008;DHT22;30743;52.008;5.644;2023-05-10T11:56:37;23.40;99.90
45008;DHT22;30743;52.008;5.644;2023-05-10T11:59:03;23.60;99.90
45008;DHT22;30743;52.008;5.644;2023-05-10T12:01:29;23.50;99.90
45008;DHT22;30743;52.008;5.644;2023-05-10T12:03:57;23.70;99.90
45008;DHT22;30743;52.008;5.644;2023-05-10T12:06:28;23.70;99.90
45008;DHT22;30743;52.008;5.644;2023-05-10T12:08:54;23.80;99.90
45008;DHT22;30743;52.008;5.644;2023-05-10T12:11:20;23.30;99.90
45008;DHT22;30743;52.008;5.644;2023-05-10T12:13:49;22.60;99.90
45008;DHT22;30743;52.008;5.644;2023-05-10T12:16:17;22.60;99.90
45008;DHT22;30743;52.008;5.644;2023-05-10T12:18:43;23.00;99.90
45008;DHT22;30743;52.008;5.644;2023-05-10T12:21:10;23.30;99.90
45008;DHT22;30743;52.008;5.644;2023-05-10T12:23:37;23.50;99.90
45008;DHT22;30743;52.008;5.644;2023-05-10T12:26:03;23.70;99.90
45008;DHT22;30743;52.008;5.644;2023-05-10T12:28:32;24.10;99.90
45008;DHT22;30743;52.008;5.644;2023-05-10T12:30:59;23.80;99.90
45008;DHT22;30743;52.008;5.644;2023-05-10T12:33:25;23.90;99.90
45008;DHT22;30743;52.008;5.644;2023-05-10T12:35:54;24.30;99.90
45008;DHT22;30743;52.008;5.644;2023-05-10T12:38:40;24.60;99.90
45008;DHT22;30743;52.008;5.644;2023-05-10T12:41:16;24.90;99.90
45008;DHT22;30743;52.008;5.644;2023-05-10T12:43:42;25.10;99.90
45008;DHT22;30743;52.008;5.644;2023-05-10T12:48:34;25.70;99.90
45008;DHT22;30743;52.008;5.644;2023-05-10T12:51:01;25.90;99.90
45008;DHT22;30743;52.008;5.644;2023-05-10T12:53:27;26.20;99.90
45008;DHT22;30743;52.008;5.644;2023-05-10T12:55:53;25.90;99.90
45008;DHT22;30743;52.008;5.644;2023-05-10T12:58:19;25.90;99.90
45008;DHT22;30743;52.008;5.644;2023-05-10T13:00:45;25.80;99.90
45008;DHT22;30743;52.008;5.644;2023-05-10T13:03:10;25.60;99.90
45008;DHT22;30743;52.008;5.644;2023-05-10T13:05:36;25.40;99.90
45008;DHT22;30743;52.008;5.644;2023-05-10T13:08:02;25.10;99.90
45008;DHT22;30743;52.008;5.644;2023-05-10T13:10:29;24.60;99.90
45008;DHT22;30743;52.008;5.644;2023-05-10T13:12:55;23.80;99.90
45008;DHT22;30743;52.008;5.644;2023-05-10T13:15:21;22.50;99.90
45008;DHT22;30743;52.008;5.644;2023-05-10T13:17:46;22.10;99.90
45008;DHT22;30743;52.008;5.644;2023-05-10T13:20:12;21.20;99.90
45008;DHT22;30743;52.008;5.644;2023-05-10T13:22:37;20.70;99.90
45008;DHT22;30743;52.008;5.644;2023-05-10T13:25:03;20.20;99.90
45008;DHT22;30743;52.008;5.644;2023-05-10T13:27:28;19.90;99.90
45008;DHT22;30743;52.008;5.644;2023-05-10T13:29:54;19.70;99.90
45008;DHT22;30743;52.008;5.644;2023-05-10T13:32:20;19.50;99.90
45008;DHT22;30743;52.008;5.644;2023-05-10T13:34:46;19.50;99.90
45008;DHT22;30743;52.008;5.644;2023-05-10T13:37:11;19.50;99.90
45008;DHT22;30743;52.008;5.644;2023-05-10T13:39:37;19.50;99.90
45008;DHT22;30743;52.008;5.644;2023-05-10T13:42:03;19.40;99.90
45008;DHT22;30743;52.008;5.644;2023-05-10T13:44:29;19.40;99.90
45008;DHT22;30743;52.008;5.644;2023-05-10T13:46:55;19.30;99.90
45008;DHT22;30743;52.008;5.644;2023-05-10T13:49:21;19.30;99.90
45008;DHT22;30743;52.008;5.644;2023-05-10T13:51:47;19.40;99.90
45008;DHT22;30743;52.008;5.644;2023-05-10T13:54:13;19.40;99.90
45008;DHT22;30743;52.008;5.644;2023-05-10T13:56:39;19.50;99.90
45008;DHT22;30743;52.008;5.644;2023-05-10T13:59:06;19.60;99.90
45008;DHT22;30743;52.008;5.644;2023-05-10T14:01:33;19.80;99.90
45008;DHT22;30743;52.008;5.644;2023-05-10T14:03:58;19.80;99.90
45008;DHT22;30743;52.008;5.644;2023-05-10T14:06:24;19.80;99.90
45008;DHT22;30743;52.008;5.644;2023-05-10T14:08:49;20.00;99.90
45008;DHT22;30743;52.008;5.644;2023-05-10T14:11:15;19.90;99.90
45008;DHT22;30743;52.008;5.644;2023-05-10T14:13:40;19.90;99.90
45008;DHT22;30743;52.008;5.644;2023-05-10T14:16:06;19.80;99.90
45008;DHT22;30743;52.008;5.644;2023-05-10T14:18:31;19.80;99.90
45008;DHT22;30743;52.008;5.644;2023-05-10T14:20:57;19.90;99.90
45008;DHT22;30743;52.008;5.644;2023-05-10T14:23:22;22.50;99.90
45008;DHT22;30743;52.008;5.644;2023-05-10T14:25:51;20.20;99.90
45008;DHT22;30743;52.008;5.644;2023-05-10T14:28:17;20.40;99.90
45008;DHT22;30743;52.008;5.644;2023-05-10T14:30:44;20.50;99.90
45008;DHT22;30743;52.008;5.644;2023-05-10T14:33:10;20.30;99.90
45008;DHT22;30743;52.008;5.644;2023-05-10T14:35:35;20.30;99.90
45008;DHT22;30743;52.008;5.644;2023-05-10T14:38:02;20.40;99.90
45008;DHT22;30743;52.008;5.644;2023-05-10T14:40:28;20.40;99.90
45008;DHT22;30743;52.008;5.644;2023-05-10T14:42:54;20.50;99.90
45008;DHT22;30743;52.008;5.644;2023-05-10T14:45:20;20.70;99.90
45008;DHT22;30743;52.008;5.644;2023-05-10T14:47:46;20.80;99.90
45008;DHT22;30743;52.008;5.644;2023-05-10T14:50:11;21.00;99.90
45008;DHT22;30743;52.008;5.644;2023-05-10T14:52:37;21.00;99.90
45008;DHT22;30743;52.008;5.644;2023-05-10T14:55:02;21.10;99.90
45008;DHT22;30743;52.008;5.644;2023-05-10T14:57:28;21.10;99.90
45008;DHT22;30743;52.008;5.644;2023-05-10T14:59:55;21.20;99.90
45008;DHT22;30743;52.008;5.644;2023-05-10T15:02:21;21.40;99.90
45008;DHT22;30743;52.008;5.644;2023-05-10T15:04:47;21.60;99.90
45008;DHT22;30743;52.008;5.644;2023-05-10T15:07:12;21.70;99.90
45008;DHT22;30743;52.008;5.644;2023-05-10T15:09:41;21.80;99.90
45008;DHT22;30743;52.008;5.644;2023-05-10T15:12:06;21.90;99.90
45008;DHT22;30743;52.008;5.644;2023-05-10T15:14:32;22.10;99.90
45008;DHT22;30743;52.008;5.644;2023-05-10T15:16:58;22.10;99.90
45008;DHT22;30743;52.008;5.644;2023-05-10T15:19:24;22.10;99.90
45008;DHT22;30743;52.008;5.644;2023-05-10T15:21:49;22.20;99.90
45008;DHT22;30743;52.008;5.644;2023-05-10T15:24:15;22.20;99.90
45008;DHT22;30743;52.008;5.644;2023-05-10T15:26:41;22.40;99.90
45008;DHT22;30743;52.008;5.644;2023-05-10T15:29:06;22.50;99.90
45008;DHT22;30743;52.008;5.644;2023-05-10T15:31:32;22.60;99.90
45008;DHT22;30743;52.008;5.644;2023-05-10T15:34:00;22.70;99.90
45008;DHT22;30743;52.008;5.644;2023-05-10T15:36:26;22.70;99.90
45008;DHT22;30743;52.008;5.644;2023-05-10T15:38:52;22.70;99.90
45008;DHT22;30743;52.008;5.644;2023-05-10T15:41:18;22.70;99.90
45008;DHT22;30743;52.008;5.644;2023-05-10T15:43:43;22.60;99.90
45008;DHT22;30743;52.008;5.644;2023-05-10T15:46:09;22.40;99.90
45008;DHT22;30743;52.008;5.644;2023-05-10T15:48:34;22.40;99.90
45008;DHT22;30743;52.008;5.644;2023-05-10T15:51:00;22.50;99.90